createdAt,value
2023-03-31T00:01:08.319Z,1.48
2023-03-31T00:03:38.260Z,1.55
2023-03-31T00:06:05.947Z,1.08
2023-03-31T00:08:36.909Z,1.17
2023-03-31T00:11:06.856Z,0.70
2023-03-31T00:13:36.126Z,1.52
2023-03-31T00:16:07.951Z,1.40
2023-03-31T00:18:36.937Z,1.63
2023-03-31T00:21:23.860Z,2.50
2023-03-31T00:23:55.702Z,2.08
2023-03-31T00:26:24.202Z,0.88
2023-03-31T00:28:52.569Z,1.38
2023-03-31T00:31:21.877Z,1.38
2023-03-31T00:33:49.902Z,0.90
2023-03-31T00:36:21.026Z,1.63
2023-03-31T00:38:48.800Z,1.35
2023-03-31T00:41:16.128Z,1.52
2023-03-31T00:44:13.054Z,3.65
2023-03-31T00:46:51.920Z,2.30
2023-03-31T00:49:31.383Z,2.08
2023-03-31T00:52:25.928Z,2.65
2023-03-31T00:55:13.505Z,2.42
2023-03-31T00:57:44.190Z,3.03
2023-03-31T01:00:14.862Z,3.25
2023-03-31T01:02:52.742Z,3.17
2023-03-31T01:05:24.202Z,3.72
2023-03-31T01:07:53.854Z,2.65
2023-03-31T01:10:22.176Z,3.28
2023-03-31T01:12:53.910Z,3.70
2023-03-31T01:15:22.063Z,4.22
2023-03-31T01:17:52.072Z,3.78
2023-03-31T01:21:03.291Z,2.70
2023-03-31T01:24:04.542Z,3.55
2023-03-31T01:26:41.553Z,3.97
2023-03-31T01:30:26.527Z,3.67
2023-03-31T01:33:37.501Z,4.03
2023-03-31T01:36:27.389Z,2.35
2023-03-31T01:39:28.109Z,3.28
2023-03-31T01:42:09.957Z,4.15
2023-03-31T01:45:07.611Z,4.55
2023-03-31T01:48:33.505Z,5.10
2023-03-31T01:51:32.238Z,5.53
2023-03-31T01:54:39.435Z,5.13
2023-03-31T01:57:43.570Z,4.78
2023-03-31T02:00:19.256Z,5.82
2023-03-31T02:03:29.677Z,5.40
2023-03-31T02:06:02.457Z,5.40
2023-03-31T02:08:37.171Z,5.35
2023-03-31T02:11:04.938Z,2.75
2023-03-31T02:13:34.202Z,1.67
2023-03-31T02:16:11.160Z,2.13
2023-03-31T02:18:41.252Z,2.10
2023-03-31T02:21:14.037Z,1.70
2023-03-31T02:23:43.817Z,2.80
2023-03-31T02:26:22.495Z,3.30
2023-03-31T02:28:50.557Z,1.60
2023-03-31T02:31:20.491Z,1.73
2023-03-31T02:33:49.222Z,1.77
2023-03-31T02:36:17.960Z,2.47
2023-03-31T02:38:56.518Z,2.10
2023-03-31T02:41:24.073Z,1.92
2023-03-31T02:43:51.689Z,2.92
2023-03-31T02:46:19.354Z,2.40
2023-03-31T02:48:53.668Z,3.25
2023-03-31T02:52:09.711Z,2.30
2023-03-31T02:55:11.271Z,1.80
2023-03-31T02:57:53.601Z,3.15
2023-03-31T03:00:30.593Z,3.92
2023-03-31T03:03:23.186Z,4.32
2023-03-31T03:06:46.278Z,4.03
2023-03-31T03:09:48.087Z,3.33
2023-03-31T03:12:53.770Z,4.55
2023-03-31T03:15:49.078Z,4.50
2023-03-31T03:18:16.798Z,3.95
2023-03-31T03:20:50.383Z,4.57
2023-03-31T03:23:18.386Z,4.00
2023-03-31T03:25:46.443Z,7.07
2023-03-31T03:28:14.206Z,5.20
2023-03-31T03:30:41.630Z,4.57
2023-03-31T03:33:09.412Z,5.10
2023-03-31T03:35:36.813Z,16.63
2023-03-31T03:38:04.243Z,8.82
2023-03-31T03:40:31.555Z,7.00
2023-03-31T03:42:58.900Z,5.70
2023-03-31T03:45:26.302Z,5.43
2023-03-31T03:47:53.676Z,6.28
2023-03-31T03:50:21.009Z,5.97
2023-03-31T03:52:48.516Z,8.55
2023-03-31T03:55:17.259Z,7.70
2023-03-31T03:57:44.511Z,7.67
2023-03-31T04:00:12.733Z,5.22
2023-03-31T04:02:40.386Z,5.53
2023-03-31T04:05:08.491Z,5.22
2023-03-31T04:07:35.834Z,5.18
2023-03-31T04:10:03.626Z,5.20
2023-03-31T04:12:33.236Z,5.13
2023-03-31T04:15:00.885Z,5.30
2023-03-31T04:17:36.254Z,5.28
2023-03-31T04:20:09.405Z,4.35
2023-03-31T04:22:40.304Z,4.85
2023-03-31T04:25:15.982Z,5.07
2023-03-31T04:27:56.120Z,3.88
2023-03-31T04:30:30.239Z,3.50
2023-03-31T04:33:01.190Z,4.40
2023-03-31T04:35:42.177Z,3.72
2023-03-31T04:38:09.604Z,3.70
2023-03-31T04:40:37.101Z,3.63
2023-03-31T04:43:04.911Z,3.80
2023-03-31T04:45:32.363Z,3.70
2023-03-31T04:47:59.754Z,5.22
2023-03-31T04:50:27.897Z,3.80
2023-03-31T04:52:55.261Z,4.35
2023-03-31T04:55:22.964Z,4.38
2023-03-31T04:57:51.070Z,5.97
2023-03-31T05:00:19.550Z,4.68
2023-03-31T05:02:47.583Z,4.68
2023-03-31T05:05:15.169Z,4.13
2023-03-31T05:07:42.759Z,4.78
2023-03-31T05:10:10.699Z,4.00
2023-03-31T05:12:39.283Z,3.40
2023-03-31T05:15:07.810Z,4.00
2023-03-31T05:17:36.275Z,3.63
2023-03-31T05:20:07.975Z,3.50
2023-03-31T05:22:42.455Z,3.13
2023-03-31T05:25:13.967Z,3.17
2023-03-31T05:27:41.295Z,3.13
2023-03-31T05:30:09.667Z,3.20
2023-03-31T05:32:37.061Z,3.00
2023-03-31T05:35:05.075Z,3.80
2023-03-31T05:37:32.724Z,3.88
2023-03-31T05:40:00.597Z,4.05
2023-03-31T05:42:27.906Z,4.80
2023-03-31T05:44:55.417Z,3.95
2023-03-31T05:47:22.920Z,4.32
2023-03-31T05:49:50.435Z,3.88
2023-03-31T05:52:17.845Z,3.97
2023-03-31T05:54:45.403Z,4.85
2023-03-31T05:57:13.374Z,4.53
2023-03-31T05:59:41.785Z,6.80
2023-03-31T06:02:13.391Z,6.75
2023-03-31T06:04:41.657Z,4.80
2023-03-31T06:07:09.617Z,4.45
2023-03-31T06:09:36.977Z,4.63
2023-03-31T06:12:05.036Z,4.07
2023-03-31T06:14:32.354Z,4.55
2023-03-31T06:17:00.050Z,4.20
2023-03-31T06:19:27.415Z,6.38
2023-03-31T06:21:55.026Z,4.65
2023-03-31T06:24:22.605Z,7.30
2023-03-31T06:26:53.082Z,6.82
2023-03-31T06:29:21.274Z,5.78
2023-03-31T08:21:48.494Z,11.05
2023-03-31T08:24:15.766Z,11.30
2023-03-31T08:26:43.226Z,8.40
2023-03-31T08:29:10.593Z,8.30
2023-03-31T08:31:38.561Z,8.65
2023-03-31T08:34:06.451Z,6.72
2023-03-31T08:36:33.925Z,7.78
2023-03-31T08:39:01.360Z,7.90
2023-03-31T08:41:56.468Z,7.25
2023-03-31T08:44:26.483Z,7.50
2023-03-31T08:46:57.144Z,7.43
2023-03-31T08:49:25.710Z,8.80
2023-03-31T08:52:01.754Z,9.40
2023-03-31T08:54:44.156Z,9.90
2023-03-31T08:57:37.921Z,10.43
2023-03-31T09:00:06.348Z,9.57
2023-03-31T09:02:47.956Z,9.65
2023-03-31T09:05:33.073Z,8.20
2023-03-31T09:08:16.674Z,10.40
2023-03-31T09:10:56.425Z,8.68
2023-03-31T09:13:58.566Z,11.02
2023-03-31T09:16:49.266Z,11.05
2023-03-31T09:19:37.942Z,8.45
2023-03-31T09:22:19.519Z,7.25
2023-03-31T09:25:26.360Z,10.55
2023-03-31T09:27:57.665Z,11.27
2023-03-31T09:30:31.606Z,9.88
2023-03-31T09:33:33.068Z,11.02
2023-03-31T09:36:02.455Z,9.05
2023-03-31T09:41:00.868Z,6.30
2023-03-31T09:43:31.474Z,7.82
2023-03-31T09:46:09.376Z,5.25
2023-03-31T09:48:38.399Z,14.07
2023-03-31T09:51:13.956Z,6.70
2023-03-31T09:54:03.914Z,5.05
2023-03-31T09:56:43.191Z,5.72
2023-03-31T09:59:20.027Z,6.30
2023-03-31T10:01:52.334Z,5.70
2023-03-31T10:04:24.292Z,5.65
2023-03-31T10:06:53.274Z,15.07
2023-03-31T10:09:25.998Z,9.55
2023-03-31T10:12:07.408Z,9.05
2023-03-31T10:14:51.605Z,10.73
2023-03-31T10:17:22.629Z,11.32
2023-03-31T10:20:05.327Z,15.95
2023-03-31T10:22:33.043Z,9.93
2023-03-31T10:25:27.436Z,16.80
2023-03-31T10:27:56.819Z,9.15
2023-03-31T10:30:30.261Z,7.38
2023-03-31T10:33:01.553Z,21.40
2023-03-31T10:35:34.870Z,8.57
2023-03-31T10:38:17.049Z,5.00
2023-03-31T10:40:55.824Z,7.70
2023-03-31T10:43:42.455Z,8.15
2023-03-31T10:46:11.631Z,8.52
2023-03-31T10:48:41.796Z,9.98
2023-03-31T10:51:20.555Z,6.93
2023-03-31T10:53:54.164Z,7.57
2023-03-31T10:56:49.701Z,6.72
2023-03-31T10:59:46.869Z,15.20
2023-03-31T11:02:35.409Z,10.23
2023-03-31T11:05:50.275Z,5.00
2023-03-31T11:08:49.260Z,3.92
2023-03-31T11:11:43.007Z,4.15
2023-03-31T11:14:41.131Z,5.38
2023-03-31T11:17:22.315Z,10.57
2023-03-31T11:20:12.430Z,10.77
2023-03-31T11:22:55.533Z,19.88
2023-03-31T11:25:48.357Z,14.35
2023-03-31T11:28:38.383Z,13.25
2023-03-31T11:31:29.863Z,9.90
2023-03-31T11:34:39.235Z,8.10
2023-03-31T11:37:31.617Z,4.40
2023-03-31T11:40:36.098Z,7.55
2023-03-31T11:43:09.127Z,10.55
2023-03-31T11:46:04.253Z,4.88
2023-03-31T11:48:56.814Z,8.55
2023-03-31T11:52:02.818Z,8.85
2023-03-31T11:54:48.768Z,8.70
2023-03-31T11:57:37.899Z,6.13
2023-03-31T12:00:22.295Z,7.28
2023-03-31T12:03:29.632Z,5.40
2023-03-31T12:06:16.414Z,4.18
2023-03-31T12:08:47.450Z,8.30
2023-03-31T12:11:48.864Z,5.85
2023-03-31T12:14:52.062Z,5.45
2023-03-31T12:17:26.317Z,3.42
2023-03-31T12:20:01.709Z,4.82
2023-03-31T12:22:44.480Z,6.20
2023-03-31T12:25:22.385Z,4.68
2023-03-31T12:27:50.937Z,3.50
2023-03-31T12:30:33.995Z,6.60
2023-03-31T12:33:07.436Z,5.28
2023-03-31T12:35:56.745Z,4.88
2023-03-31T12:38:38.528Z,4.82
2023-03-31T12:41:22.278Z,3.42
2023-03-31T12:44:40.785Z,4.20
2023-03-31T12:47:40.909Z,4.07
2023-03-31T12:50:32.935Z,1.85
2023-03-31T12:53:00.308Z,6.65
2023-03-31T12:55:37.212Z,6.25
2023-03-31T12:58:24.256Z,5.15
2023-03-31T13:01:24.159Z,3.65
2023-03-31T13:04:26.301Z,2.65
2023-03-31T13:06:57.231Z,3.00
2023-03-31T13:09:45.271Z,2.85
2023-03-31T13:12:23.555Z,3.65
2023-03-31T13:14:53.945Z,2.13
2023-03-31T13:17:32.811Z,1.95
2023-03-31T13:20:59.517Z,3.58
2023-03-31T13:23:36.538Z,2.30
2023-03-31T13:26:05.366Z,2.67
2023-03-31T13:28:43.208Z,1.98
2023-03-31T13:31:14.021Z,1.83
2023-03-31T13:33:58.909Z,2.13
2023-03-31T13:36:31.973Z,1.70
2023-03-31T13:39:20.850Z,1.50
2023-03-31T13:42:18.788Z,2.22
2023-03-31T13:45:00.939Z,2.67
2023-03-31T13:48:12.483Z,1.27
2023-03-31T13:51:15.863Z,1.08
2023-03-31T13:54:25.697Z,2.00
2023-03-31T13:57:19.134Z,0.98
2023-03-31T14:00:23.903Z,5.95
2023-03-31T14:03:34.427Z,1.98
2023-03-31T14:06:16.861Z,1.55
2023-03-31T14:08:49.231Z,1.00
2023-03-31T14:11:29.394Z,1.10
2023-03-31T14:14:15.610Z,1.02
2023-03-31T14:16:55.234Z,1.80
2023-03-31T14:19:35.016Z,0.75
2023-03-31T14:22:35.599Z,2.70
2023-03-31T14:25:19.739Z,1.65
2023-03-31T14:28:46.172Z,2.22
2023-03-31T14:31:37.826Z,3.70
2023-03-31T14:34:46.883Z,2.00
2023-03-31T14:37:17.103Z,2.03
2023-03-31T14:39:49.237Z,1.25
2023-03-31T14:42:25.484Z,1.08
2023-03-31T14:45:04.561Z,1.98
2023-03-31T14:50:13.524Z,1.33
2023-03-31T14:52:51.783Z,2.17
2023-03-31T14:55:28.655Z,1.27
2023-03-31T14:58:03.369Z,1.35
2023-03-31T15:00:35.880Z,1.30
2023-03-31T15:03:08.895Z,2.08
2023-03-31T15:05:41.028Z,1.20
2023-03-31T15:08:16.194Z,1.60
2023-03-31T15:10:51.979Z,1.50
2023-03-31T15:14:04.394Z,2.08
2023-03-31T15:16:44.534Z,2.90
2023-03-31T15:19:22.109Z,2.70
2023-03-31T15:22:04.796Z,2.58
2023-03-31T15:24:32.578Z,2.20
2023-03-31T15:27:39.027Z,1.90
2023-03-31T15:30:14.012Z,1.70
2023-03-31T15:32:41.828Z,3.25
2023-03-31T15:35:30.363Z,3.78
2023-03-31T15:37:59.586Z,3.55
2023-03-31T15:43:27.356Z,4.82
2023-03-31T15:46:00.823Z,5.22
2023-03-31T15:48:34.248Z,5.30
2023-03-31T15:51:13.831Z,4.80
2023-03-31T15:53:53.130Z,3.58
2023-03-31T15:59:41.657Z,17.52
2023-03-31T16:02:39.753Z,12.95
2023-03-31T16:05:27.002Z,4.03
2023-03-31T16:07:56.150Z,2.70
2023-03-31T16:10:24.308Z,2.88
2023-03-31T16:13:05.832Z,3.50
2023-03-31T16:15:46.490Z,4.15
2023-03-31T16:18:36.865Z,2.10
2023-03-31T16:21:08.521Z,2.92
2023-03-31T16:23:40.513Z,3.25
2023-03-31T16:26:08.347Z,4.35
2023-03-31T16:28:37.479Z,5.32
2023-03-31T16:31:25.851Z,4.43
2023-03-31T16:33:56.350Z,4.07
2023-03-31T16:36:23.763Z,3.60
2023-03-31T16:38:54.969Z,3.00
2023-03-31T16:41:22.947Z,5.32
2023-03-31T16:43:54.221Z,3.42
2023-03-31T16:46:23.623Z,2.72
2023-03-31T16:48:52.504Z,3.28
2023-03-31T16:51:20.235Z,3.15
2023-03-31T16:53:48.063Z,4.22
2023-03-31T16:56:16.146Z,5.53
2023-03-31T16:58:43.520Z,5.97
2023-03-31T17:01:11.701Z,6.47
2023-03-31T17:03:40.881Z,9.40
2023-03-31T17:06:11.969Z,9.15
2023-03-31T17:08:39.995Z,10.57
2023-03-31T17:11:11.696Z,9.70
2023-03-31T17:13:44.358Z,23.80
2023-03-31T17:18:43.923Z,11.60
2023-03-31T17:21:14.438Z,9.48
2023-03-31T17:23:42.224Z,10.05
2023-03-31T17:26:11.968Z,5.40
2023-03-31T17:28:40.497Z,5.82
2023-03-31T17:31:20.882Z,5.30
2023-03-31T17:33:49.007Z,10.15
2023-03-31T17:36:16.958Z,13.60
2023-03-31T17:38:44.738Z,15.63
2023-03-31T17:41:13.424Z,15.15
2023-03-31T17:43:45.543Z,12.77
2023-03-31T17:46:13.867Z,11.07
2023-03-31T17:48:42.492Z,7.83
2023-03-31T17:51:15.932Z,14.67
2023-03-31T17:53:45.904Z,16.77
2023-03-31T17:56:15.676Z,14.95
2023-03-31T17:58:43.615Z,15.15
2023-03-31T18:01:12.858Z,13.77
2023-03-31T18:03:40.633Z,11.38
2023-03-31T18:06:13.872Z,14.25
2023-03-31T18:08:42.224Z,12.70
2023-03-31T18:11:10.807Z,10.73
2023-03-31T18:13:38.741Z,13.95
2023-03-31T18:16:12.238Z,11.45
2023-03-31T18:18:40.986Z,12.75
2023-03-31T18:21:12.462Z,8.35
2023-03-31T18:23:40.409Z,7.57
2023-03-31T18:26:10.339Z,13.70
2023-03-31T18:28:39.513Z,24.98
2023-03-31T18:31:08.324Z,9.52
2023-03-31T18:33:35.998Z,5.40
2023-03-31T18:36:04.265Z,7.95
2023-03-31T18:38:32.792Z,8.13
2023-03-31T18:41:00.507Z,7.95
2023-03-31T18:43:28.511Z,7.80
2023-03-31T18:45:58.028Z,8.73
2023-03-31T18:48:25.372Z,10.10
2023-03-31T18:50:53.149Z,11.02
2023-03-31T18:53:22.592Z,13.13
2023-03-31T18:58:23.469Z,14.95
2023-03-31T19:00:50.903Z,15.50
2023-03-31T19:03:18.893Z,13.75
2023-03-31T19:05:46.734Z,14.82
2023-03-31T19:08:13.987Z,15.95
2023-03-31T19:10:41.289Z,15.43
2023-03-31T19:13:15.293Z,15.10
2023-03-31T19:15:42.669Z,10.57
2023-03-31T19:18:14.362Z,13.13
2023-03-31T19:20:41.563Z,19.52
2023-03-31T19:23:08.959Z,23.40
2023-03-31T19:25:36.402Z,30.88
2023-03-31T19:28:03.929Z,26.95
2023-03-31T19:30:31.188Z,27.75
2023-03-31T19:33:01.300Z,35.53
2023-03-31T19:35:29.690Z,35.00
2023-03-31T19:37:57.280Z,49.88
2023-03-31T19:40:24.730Z,39.47
2023-03-31T19:42:52.337Z,36.25
2023-03-31T19:45:19.548Z,28.10
2023-03-31T19:47:46.814Z,24.00
2023-03-31T19:50:14.118Z,19.92
2023-03-31T19:52:43.231Z,15.70
2023-03-31T19:55:11.076Z,11.52
2023-03-31T19:57:38.369Z,12.95
2023-03-31T20:00:07.501Z,12.05
2023-03-31T20:02:35.478Z,9.75
2023-03-31T20:05:03.060Z,7.60
2023-03-31T20:07:30.714Z,13.00
2023-03-31T20:09:57.896Z,10.18
2023-03-31T20:12:25.415Z,5.38
2023-03-31T20:14:52.785Z,6.22
2023-03-31T20:17:20.637Z,5.40
2023-03-31T20:19:47.903Z,6.57
2023-03-31T20:22:15.345Z,7.03
2023-03-31T20:24:42.809Z,6.32
2023-03-31T20:27:10.172Z,8.82
2023-03-31T20:29:37.783Z,8.65
2023-03-31T20:32:05.337Z,8.77
2023-03-31T20:34:33.397Z,6.97
2023-03-31T20:37:01.675Z,6.78
2023-03-31T20:39:29.066Z,7.38
2023-03-31T20:41:56.401Z,9.35
2023-03-31T20:44:24.463Z,6.40
2023-03-31T20:46:51.799Z,6.88
2023-03-31T20:49:19.038Z,6.53
2023-03-31T20:51:47.045Z,7.28
2023-03-31T20:54:14.544Z,6.97
2023-03-31T20:56:42.148Z,6.35
2023-03-31T20:59:15.147Z,7.50
2023-03-31T21:01:46.597Z,6.32
2023-03-31T21:04:16.406Z,6.85
2023-03-31T21:06:46.743Z,6.68
2023-03-31T21:09:16.067Z,6.28
2023-03-31T21:14:14.546Z,5.90
2023-03-31T21:16:42.584Z,6.45
2023-03-31T21:19:10.208Z,5.28
2023-03-31T21:21:40.381Z,6.30
2023-03-31T21:24:11.017Z,5.80
2023-03-31T21:26:39.794Z,4.35
2023-03-31T21:29:07.135Z,4.32
2023-03-31T21:31:34.830Z,4.32
2023-03-31T21:34:03.058Z,3.85
2023-03-31T21:36:30.720Z,3.17
2023-03-31T21:38:58.157Z,4.10
2023-03-31T21:41:29.359Z,2.83
2023-03-31T21:43:59.072Z,3.28
2023-03-31T21:46:30.863Z,2.92
2023-03-31T21:48:58.550Z,3.33
2023-03-31T21:51:26.500Z,4.90
2023-03-31T21:53:54.828Z,4.07
2023-03-31T21:56:24.763Z,7.25
2023-03-31T21:58:52.818Z,6.82
2023-03-31T22:01:21.054Z,4.82
2023-03-31T22:03:49.460Z,7.03
2023-03-31T22:06:17.506Z,7.78
2023-03-31T22:08:45.119Z,8.70
2023-03-31T22:11:13.426Z,7.07
2023-03-31T22:13:41.129Z,7.00
2023-03-31T22:16:18.502Z,5.90
2023-03-31T22:18:47.101Z,5.70
2023-03-31T22:21:24.960Z,4.20
2023-03-31T22:23:55.344Z,6.22
2023-03-31T22:26:23.309Z,8.63
2023-03-31T22:28:50.891Z,8.35
2023-03-31T22:31:18.785Z,9.25
2023-03-31T22:33:46.638Z,9.18
2023-03-31T22:36:14.511Z,7.68
2023-03-31T22:38:41.649Z,8.32
2023-03-31T22:41:08.908Z,9.10
2023-03-31T22:43:36.055Z,7.95
2023-03-31T22:46:07.526Z,6.85
2023-03-31T22:48:35.083Z,6.57
2023-03-31T22:51:05.383Z,7.68
2023-03-31T22:53:33.595Z,7.05
2023-03-31T22:56:11.409Z,7.72
2023-03-31T22:58:39.028Z,8.30
2023-03-31T23:01:09.085Z,8.02
2023-03-31T23:03:36.871Z,9.48
2023-03-31T23:06:05.762Z,12.10
2023-03-31T23:08:35.099Z,9.45
2023-03-31T23:13:31.694Z,9.68
2023-03-31T23:16:26.674Z,10.10
2023-03-31T23:18:55.236Z,12.13
2023-03-31T23:21:26.065Z,11.67
2023-03-31T23:23:57.488Z,11.02
2023-03-31T23:26:25.868Z,11.45
2023-03-31T23:28:53.558Z,10.65
2023-03-31T23:31:28.240Z,8.65
2023-03-31T23:33:57.436Z,5.82
2023-03-31T23:36:25.216Z,6.10
2023-03-31T23:38:55.626Z,6.10
2023-03-31T23:41:25.603Z,4.60
2023-03-31T23:43:53.154Z,8.63
2023-03-31T23:46:21.015Z,9.10
2023-03-31T23:48:48.683Z,7.45
2023-03-31T23:51:15.859Z,5.38
2023-03-31T23:53:42.992Z,8.90
2023-03-31T23:56:12.413Z,10.73
